Flight Track Log - Related Links

Times and Time Zones

All times are in EDT time to prevent confusion due to time zone crossing. See the N1078S flight status page for this flight to view local times or setup timezone preferences in your user account.

Time Position Orientation Groundspeed Altitude Reporting Facility
EDT Latitude Longitude Course Direction KTS MPH feet Rate Location/Type
Mon 05:35:09 PM 39.0000 -76.9333 339° North 124 143 700  Level Potomac TRACON
Mon 05:36:09 PM 39.0333 -76.9500 339° North 157 181 1,500 1,000 Climbing Potomac TRACON
Mon 05:37:09 PM 39.0833 -76.9500 360° North 154 177 2,700 950 Climbing Potomac TRACON
Mon 05:38:09 PM 39.1167 -76.9667 339° North 163 188 3,400 650 Climbing Potomac TRACON
Mon 05:39:09 PM 39.1667 -76.9667 360° North 172 198 4,000 714 Climbing Potomac TRACON
Mon 05:40:15 PM 39.2167 -76.9667 360° North 177 204 4,900 550 Climbing Potomac TRACON
Mon 05:41:09 PM 39.2667 -76.9833 346° North 177 204 5,100 105 Climbing Potomac TRACON
Mon 05:42:09 PM 39.3167 -76.9833 360° North 186 214 5,100  Level Potomac TRACON
Mon 05:43:09 PM 39.3667 -76.9833 360° North 187 215 5,100  Level Potomac TRACON
Mon 05:44:03 PM 39.4000 -76.9500 38° Northeast 202 232 5,100  Level Potomac TRACON
Mon 05:45:03 PM 39.4167 -76.8833 72° East 202 232 5,100  Level Potomac TRACON
Mon 05:46:09 PM 39.4500 -76.8000 63° Northeast 198 228 5,100  Level Potomac TRACON
Mon 05:47:09 PM 39.4667 -76.7500 67° East 200 230 5,100  Level Potomac TRACON
Mon 05:48:09 PM 39.5000 -76.6833 57° Northeast 195 224 5,100  Level Potomac TRACON
Mon 05:49:15 PM 39.5167 -76.6167 72° East 198 228 5,100  Level Potomac TRACON
Mon 05:50:15 PM 39.5500 -76.5500 57° Northeast 202 232 5,100  Level Potomac TRACON
Mon 05:51:16 PM 39.5833 -76.4833 57° Northeast 196 226 5,100  Level Potomac TRACON
Mon 05:52:16 PM 39.6000 -76.4167 72° East 200 230 5,100  Level Potomac TRACON
Mon 05:53:16 PM 39.6333 -76.3667 49° Northeast 201 231 5,100  Level Potomac TRACON
Mon 05:55:50 PM 39.7000 -76.2000 62° Northeast 207 238 5,100  Level Philadelphia TRACON
Mon 05:56:50 PM 39.7333 -76.1333 57° Northeast 207 238 5,100  Level Philadelphia TRACON
Mon 05:57:50 PM 39.7500 -76.0667 72° East 207 238 5,100  Level Philadelphia TRACON
Mon 05:58:44 PM 39.7833 -76.0000 57° Northeast 205 236 5,100  Level Philadelphia TRACON
Mon 05:59:44 PM 39.8000 -75.9500 67° East 199 229 5,100  Level Philadelphia TRACON
Mon 06:00:44 PM 39.8333 -75.8833 57° Northeast 199 229 5,100  Level Philadelphia TRACON
Mon 06:01:44 PM 39.8500 -75.8167 72° East 203 234 5,100  Level Philadelphia TRACON
Mon 06:02:44 PM 39.8833 -75.7500 57° Northeast 202 232 5,100  Level Philadelphia TRACON
Mon 06:03:50 PM 39.9167 -75.6833 57° Northeast 204 235 5,100  Level Philadelphia TRACON
Mon 06:04:50 PM 39.9500 -75.6167 57° Northeast 203 234 5,100  Level Philadelphia TRACON
Mon 06:05:50 PM 39.9833 -75.5667 49° Northeast 205 236 5,100  Level Philadelphia TRACON
Mon 06:06:50 PM 40.0333 -75.5167 37° Northeast 200 230 5,100  Level Philadelphia TRACON
Mon 06:07:44 PM 40.0667 -75.4667 49° Northeast 200 230 5,100  Level Philadelphia TRACON
Mon 06:08:44 PM 40.1000 -75.4167 49° Northeast 199 229 5,100  Level Philadelphia TRACON
Mon 06:09:45 PM 40.1333 -75.3667 49° Northeast 196 226 5,100  Level Philadelphia TRACON
Mon 06:10:45 PM 40.1833 -75.3167 37° Northeast 194 223 5,100  Level Philadelphia TRACON
Mon 06:11:51 PM 40.2167 -75.2500 57° Northeast 197 227 5,100 -32 Level Philadelphia TRACON
Mon 06:13:50 PM 40.3000 -75.1500 42° Northeast 211 243 5,000 -168 Descending New York TRACON
Mon 06:14:50 PM 40.3333 -75.1000 49° Northeast 206 237 4,600 -353 Descending New York TRACON
Mon 06:15:49 PM 40.3667 -75.0500 49° Northeast 198 228 4,300 -200 Descending New York TRACON
Mon 06:16:50 PM 40.4000 -74.9833 57° Northeast 192 221 4,200 -149 Descending New York TRACON
Mon 06:17:50 PM 40.4167 -74.9167 72° East 191 220 4,000 -100 Descending New York TRACON
Mon 06:18:50 PM 40.4333 -74.8500 72° East 195 224 4,000  Level New York TRACON
Mon 06:19:50 PM 40.4667 -74.7833 57° Northeast 195 224 4,000  Level New York TRACON
Mon 06:20:50 PM 40.4833 -74.7333 66° East 199 229 4,000  Level New York TRACON
Mon 06:21:50 PM 40.5333 -74.6833 37° Northeast 200 230 4,000  Level New York TRACON
Mon 06:22:50 PM 40.5667 -74.6333 49° Northeast 195 224 4,000  Level New York TRACON
Mon 06:23:50 PM 40.6167 -74.5833 37° Northeast 207 238 4,000 -150 Level New York TRACON
Mon 06:24:50 PM 40.6667 -74.5500 27° Northeast 191 220 3,700 -429 Descending New York TRACON
Mon 06:25:56 PM 40.7167 -74.5167 27° Northeast 196 226 3,100 -286 Descending New York TRACON
Mon 06:26:56 PM 40.7667 -74.5000 14° North 168 193 3,100  Level New York TRACON
Mon 06:27:56 PM 40.8000 -74.5000 360° North 170 196 3,100  Level New York TRACON
Mon 06:28:56 PM 40.8500 -74.5000 360° North 162 186 3,100  Level New York TRACON
Mon 06:29:57 PM 40.9000 -74.4833 14° North 174 200 3,100 -200 Level New York TRACON
Mon 06:30:56 PM 40.9000 -74.4167 90° East 168 193 2,700 -504 Descending New York TRACON
Mon 06:31:56 PM 40.9167 -74.3667 66° East 163 188 2,100 -500 Descending New York TRACON
Mon 06:32:56 PM 40.9167 -74.3167 90° East 141 162 1,700 -500 Descending New York TRACON
Mon 06:33:56 PM 40.9000 -74.2667 114° Southeast 135 155 1,100 -600 Descending New York TRACON
Mon 06:35:00 PM 40.8752 -74.2814 180° South  Level Estimated
Mon 06:42:00 PM 40.8752 -74.2814 52° Northeast  Level Estimated
Mon 06:43:00 PM 40.8752 -74.2814 52° Northeast  Level Estimated
Mon 06:44:00 PM 40.8752 -74.2814 52° Northeast  Level Estimated
Mon 06:45:00 PM 40.8752 -74.2814 52° Northeast  Level Estimated

Login

Don't have an account? Register now (free) for customized features, flight alerts, and more!